createdAt,value
2023-05-08T00:01:57.690Z,99.90
2023-05-08T00:04:24.478Z,99.90
2023-05-08T00:06:54.676Z,99.90
2023-05-08T00:09:21.708Z,99.90
2023-05-08T00:11:48.885Z,99.90
2023-05-08T00:14:15.736Z,99.90
2023-05-08T00:16:42.767Z,99.90
2023-05-08T00:19:09.480Z,99.90
2023-05-08T00:21:36.621Z,99.90
2023-05-08T00:24:03.485Z,99.90
2023-05-08T00:26:30.253Z,99.90
2023-05-08T00:28:57.301Z,99.90
2023-05-08T00:31:24.197Z,99.90
2023-05-08T00:33:50.949Z,99.90
2023-05-08T00:36:18.436Z,99.90
2023-05-08T00:38:45.152Z,99.90
2023-05-08T00:41:12.015Z,99.90
2023-05-08T00:43:40.375Z,99.90
2023-05-08T00:46:09.713Z,99.90
2023-05-08T00:48:37.092Z,99.90
2023-05-08T00:51:07.737Z,99.90
2023-05-08T00:53:41.160Z,99.90
2023-05-08T00:56:12.201Z,99.90
2023-05-08T00:58:39.857Z,99.90
2023-05-08T01:01:07.396Z,99.90
2023-05-08T01:03:36.149Z,99.90
2023-05-08T01:06:05.112Z,99.90
2023-05-08T01:08:32.482Z,99.90
2023-05-08T01:11:14.093Z,99.90
2023-05-08T01:14:02.821Z,99.90
2023-05-08T01:17:06.018Z,99.90
2023-05-08T01:19:54.849Z,99.90
2023-05-08T01:22:30.651Z,99.90
2023-05-08T01:25:21.363Z,99.90
2023-05-08T01:28:06.368Z,99.90
2023-05-08T01:30:59.115Z,99.90
2023-05-08T01:33:47.484Z,99.90
2023-05-08T01:36:41.446Z,99.90
2023-05-08T01:39:17.515Z,99.90
2023-05-08T01:41:56.551Z,99.90
2023-05-08T01:44:28.907Z,99.90
2023-05-08T01:46:56.024Z,99.90
2023-05-08T01:49:27.475Z,99.90
2023-05-08T01:52:00.814Z,99.90
2023-05-08T01:54:33.869Z,99.90
2023-05-08T01:57:01.911Z,99.90
2023-05-08T01:59:31.188Z,99.90
2023-05-08T02:02:00.882Z,99.90
2023-05-08T02:04:28.874Z,99.90
2023-05-08T02:06:57.069Z,99.90
2023-05-08T02:09:25.087Z,99.90
2023-05-08T02:11:53.607Z,99.90
2023-05-08T02:14:28.133Z,99.90
2023-05-08T02:16:57.608Z,99.90
2023-05-08T02:19:26.958Z,99.90
2023-05-08T02:21:58.299Z,99.90
2023-05-08T02:24:25.619Z,99.90
2023-05-08T02:26:54.588Z,99.90
2023-05-08T02:29:23.780Z,99.90
2023-05-08T02:31:53.364Z,99.90
2023-05-08T02:34:23.369Z,99.90
2023-05-08T02:36:53.665Z,99.90
2023-05-08T02:39:25.300Z,99.90
2023-05-08T02:41:52.615Z,99.90
2023-05-08T02:44:19.491Z,99.90
2023-05-08T02:47:08.440Z,99.90
2023-05-08T02:49:49.161Z,99.90
2023-05-08T02:52:34.732Z,99.90
2023-05-08T02:55:06.004Z,99.90
2023-05-08T02:58:16.482Z,99.90
2023-05-08T03:01:30.291Z,99.90
2023-05-08T03:04:07.852Z,99.90
2023-05-08T03:06:40.340Z,99.90
2023-05-08T03:09:13.156Z,99.90
2023-05-08T03:11:43.920Z,99.90
2023-05-08T03:14:14.007Z,99.90
2023-05-08T03:16:44.680Z,99.90
2023-05-08T03:19:23.462Z,99.90
2023-05-08T03:21:53.455Z,99.90
2023-05-08T03:24:22.705Z,99.90
2023-05-08T03:26:49.982Z,99.90
2023-05-08T03:29:18.584Z,99.90
2023-05-08T03:31:47.387Z,99.90
2023-05-08T03:34:15.985Z,99.90
2023-05-08T03:36:42.940Z,99.90
2023-05-08T03:39:09.968Z,99.90
2023-05-08T03:41:36.680Z,99.90
2023-05-08T03:44:04.298Z,99.90
2023-05-08T03:46:35.703Z,99.90
2023-05-08T03:49:04.793Z,99.90
2023-05-08T03:51:32.390Z,99.90
2023-05-08T03:53:59.346Z,99.90
2023-05-08T03:56:26.329Z,99.90
2023-05-08T03:59:21.773Z,99.90
2023-05-08T04:02:08.037Z,99.90
2023-05-08T04:04:43.866Z,99.90
2023-05-08T04:07:31.944Z,99.90
2023-05-08T04:10:04.660Z,99.90
2023-05-08T04:12:52.526Z,99.90
2023-05-08T04:15:29.268Z,99.90
2023-05-08T04:18:09.258Z,99.90
2023-05-08T04:20:42.314Z,99.90
2023-05-08T04:23:14.068Z,99.90
2023-05-08T04:25:42.622Z,99.90
2023-05-08T04:28:10.270Z,99.90
2023-05-08T04:30:37.207Z,99.90
2023-05-08T04:33:05.832Z,99.90
2023-05-08T04:35:34.049Z,99.90
2023-05-08T04:38:01.448Z,99.90
2023-05-08T04:40:28.387Z,99.90
2023-05-08T04:42:55.449Z,99.90
2023-05-08T04:45:22.539Z,99.90
2023-05-08T04:47:49.202Z,99.90
2023-05-08T04:50:15.949Z,99.90
2023-05-08T04:52:43.078Z,99.90
2023-05-08T04:55:10.536Z,99.90
2023-05-08T04:57:37.329Z,99.90
2023-05-08T05:00:06.253Z,99.90
2023-05-08T05:02:32.963Z,99.90
2023-05-08T05:05:01.215Z,99.90
2023-05-08T05:07:28.176Z,99.90
2023-05-08T05:09:55.123Z,99.90
2023-05-08T05:12:21.750Z,99.90
2023-05-08T05:14:48.348Z,99.90
2023-05-08T05:17:14.972Z,99.90
2023-05-08T05:19:41.605Z,99.90
2023-05-08T05:22:08.456Z,99.90
2023-05-08T05:24:39.787Z,99.90
2023-05-08T05:27:06.479Z,99.90
2023-05-08T05:29:33.432Z,99.90
2023-05-08T05:32:16.461Z,99.90
2023-05-08T05:34:43.355Z,99.90
2023-05-08T05:37:23.074Z,99.90
2023-05-08T05:39:49.999Z,99.90
2023-05-08T05:42:16.642Z,99.90
2023-05-08T05:44:43.320Z,99.90
2023-05-08T05:47:10.951Z,99.90
2023-05-08T05:49:37.657Z,99.90
2023-05-08T05:52:04.488Z,99.90
2023-05-08T05:54:48.473Z,99.90
2023-05-08T05:57:53.585Z,99.90
2023-05-08T06:00:28.721Z,99.90
2023-05-08T06:03:15.761Z,99.90
2023-05-08T06:05:42.613Z,99.90
2023-05-08T06:08:09.295Z,99.90
2023-05-08T06:10:41.439Z,99.90
2023-05-08T06:13:09.701Z,99.90
2023-05-08T06:15:36.788Z,99.90
2023-05-08T06:18:06.792Z,99.90
2023-05-08T06:20:33.554Z,99.90
2023-05-08T06:23:00.708Z,99.90
2023-05-08T06:25:28.408Z,99.90
2023-05-08T06:27:55.044Z,99.90
2023-05-08T06:30:21.983Z,99.90
2023-05-08T06:32:48.710Z,99.90
2023-05-08T06:35:18.529Z,99.90
2023-05-08T06:37:46.834Z,99.90
2023-05-08T06:40:13.986Z,99.90
2023-05-08T06:42:41.112Z,99.90
2023-05-08T06:45:09.815Z,99.90
2023-05-08T06:47:36.708Z,99.90
2023-05-08T06:50:04.010Z,99.90
2023-05-08T06:52:30.942Z,99.90
2023-05-08T06:54:57.574Z,99.90
2023-05-08T06:57:27.105Z,99.90
2023-05-08T06:59:54.433Z,99.80
2023-05-08T07:02:21.113Z,99.90
2023-05-08T07:04:48.164Z,99.90
2023-05-08T07:07:15.321Z,98.50
2023-05-08T07:09:42.063Z,97.10
2023-05-08T07:12:09.439Z,96.90
2023-05-08T07:14:36.538Z,95.60
2023-05-08T07:17:07.618Z,97.40
2023-05-08T07:19:36.522Z,96.70
2023-05-08T07:22:03.296Z,98.10
2023-05-08T07:24:30.444Z,96.50
2023-05-08T07:26:59.559Z,97.30
2023-05-08T07:29:29.286Z,98.40
2023-05-08T07:31:56.529Z,95.70
2023-05-08T07:34:23.275Z,96.10
2023-05-08T07:36:50.229Z,94.90
2023-05-08T07:39:17.203Z,94.80
2023-05-08T07:41:44.227Z,96.20
2023-05-08T07:44:10.911Z,96.50
2023-05-08T07:46:38.258Z,95.70
2023-05-08T07:49:05.014Z,95.20
2023-05-08T07:51:32.358Z,96.30
2023-05-08T07:53:59.004Z,95.70
2023-05-08T07:56:25.744Z,95.60
2023-05-08T07:58:52.620Z,94.40
2023-05-08T08:01:19.385Z,93.60
2023-05-08T08:03:46.771Z,93.20
2023-05-08T08:06:13.766Z,92.90
2023-05-08T08:08:40.901Z,90.40
2023-05-08T08:11:07.895Z,88.20
2023-05-08T08:13:34.908Z,90.20
2023-05-08T08:16:03.854Z,90.50
2023-05-08T08:18:33.649Z,90.10
2023-05-08T08:21:00.554Z,87.10
2023-05-08T08:23:27.304Z,88.70
2023-05-08T08:25:54.229Z,90.30
2023-05-08T08:28:20.918Z,89.90
2023-05-08T08:30:47.618Z,88.50
2023-05-08T08:33:15.812Z,85.80
2023-05-08T08:35:43.800Z,86.60
2023-05-08T08:38:10.467Z,84.30
2023-05-08T08:40:41.316Z,84.00
2023-05-08T08:43:08.916Z,84.10
2023-05-08T08:45:37.013Z,86.90
2023-05-08T08:48:05.287Z,86.10
2023-05-08T08:50:33.398Z,82.70
2023-05-08T08:53:22.436Z,83.90
2023-05-08T08:55:53.942Z,81.80
2023-05-08T08:58:25.511Z,83.50
2023-05-08T09:00:54.845Z,83.60
2023-05-08T09:03:21.588Z,83.60
2023-05-08T09:05:51.545Z,76.00
2023-05-08T09:08:21.577Z,70.70
2023-05-08T09:10:48.601Z,69.10
2023-05-08T09:13:16.652Z,66.60
2023-05-08T09:15:45.005Z,60.10
2023-05-08T09:18:11.804Z,57.60
2023-05-08T09:20:41.336Z,57.10
2023-05-08T09:23:08.419Z,58.90
2023-05-08T09:25:45.835Z,58.50
2023-05-08T09:28:21.199Z,60.50
2023-05-08T09:31:34.271Z,60.60
2023-05-08T09:34:01.105Z,58.50
2023-05-08T09:36:28.946Z,57.70
2023-05-08T09:42:52.998Z,54.20
2023-05-08T09:45:29.261Z,53.60
2023-05-08T09:47:56.418Z,55.00
2023-05-08T09:50:23.844Z,54.60
2023-05-08T09:52:50.907Z,53.10
2023-05-08T09:55:18.182Z,50.70
2023-05-08T09:57:54.088Z,49.70
2023-05-08T10:00:21.540Z,49.30
2023-05-08T10:03:02.199Z,50.40
2023-05-08T10:05:34.880Z,49.50
2023-05-08T10:08:24.400Z,49.10
2023-05-08T10:10:51.171Z,48.90
2023-05-08T10:13:18.020Z,48.30
2023-05-08T10:16:18.158Z,47.20
2023-05-08T10:18:48.737Z,48.00
2023-05-08T10:21:16.768Z,47.30
2023-05-08T10:23:47.043Z,49.00
2023-05-08T10:26:19.640Z,48.90
2023-05-08T10:28:57.653Z,48.50
2023-05-08T10:31:35.726Z,48.40
2023-05-08T10:34:04.116Z,50.50
2023-05-08T10:36:54.159Z,49.90
2023-05-08T10:39:22.390Z,50.20
2023-05-08T10:41:50.384Z,50.10
2023-05-08T10:44:18.398Z,49.70
2023-05-08T10:46:53.396Z,48.60
2023-05-08T10:49:47.811Z,48.30
2023-05-08T10:52:40.317Z,49.90
2023-05-08T10:55:22.715Z,50.10
2023-05-08T10:58:11.016Z,51.10
2023-05-08T11:00:52.947Z,49.60
2023-05-08T11:03:30.576Z,49.50
2023-05-08T11:05:59.930Z,49.30
2023-05-08T11:08:32.628Z,49.80
2023-05-08T11:11:02.275Z,50.70
2023-05-08T11:14:10.743Z,50.40
2023-05-08T11:16:56.574Z,50.50
2023-05-08T11:19:25.207Z,50.80
2023-05-08T11:22:10.805Z,51.40
2023-05-08T11:24:38.681Z,52.40
2023-05-08T11:27:05.456Z,52.50
2023-05-08T11:29:32.564Z,51.40
2023-05-08T11:32:10.938Z,53.40
2023-05-08T11:34:44.060Z,53.20
2023-05-08T11:37:21.718Z,54.10
2023-05-08T11:39:49.078Z,53.00
2023-05-08T11:42:25.497Z,54.80
2023-05-08T11:45:10.946Z,53.10
2023-05-08T11:47:42.986Z,51.60
2023-05-08T11:50:12.103Z,50.60
2023-05-08T11:52:41.003Z,50.90
2023-05-08T11:55:10.405Z,50.40
2023-05-08T11:57:37.744Z,51.50
2023-05-08T12:00:10.370Z,51.70
2023-05-08T12:02:40.026Z,50.70
2023-05-08T12:05:08.800Z,49.20
2023-05-08T12:07:49.628Z,49.00
2023-05-08T12:10:17.515Z,52.00
2023-05-08T12:12:45.180Z,53.80
2023-05-08T12:15:14.903Z,51.80
2023-05-08T12:17:42.604Z,51.80
2023-05-08T12:20:16.542Z,51.70
2023-05-08T12:22:50.759Z,50.70
2023-05-08T12:25:18.738Z,48.70
2023-05-08T12:27:45.749Z,48.50
2023-05-08T12:30:14.789Z,46.10
2023-05-08T12:32:43.309Z,46.30
2023-05-08T12:35:12.240Z,45.20
2023-05-08T12:37:39.663Z,46.10
2023-05-08T12:40:08.172Z,48.20
2023-05-08T12:42:44.542Z,48.30
2023-05-08T12:45:18.953Z,48.20
2023-05-08T12:47:49.803Z,48.20
2023-05-08T12:50:18.794Z,49.30
2023-05-08T12:52:46.383Z,48.30
2023-05-08T12:55:22.533Z,47.40
2023-05-08T12:58:06.268Z,47.30
2023-05-08T13:00:41.296Z,49.00
2023-05-08T13:03:09.839Z,49.60
2023-05-08T13:05:38.135Z,47.50
2023-05-08T13:08:06.577Z,46.80
2023-05-08T13:10:56.472Z,47.90
2023-05-08T13:13:25.743Z,48.90
2023-05-08T13:15:56.708Z,49.30
2023-05-08T13:18:28.303Z,49.80
2023-05-08T13:20:56.292Z,49.20
2023-05-08T13:23:23.695Z,49.80
2023-05-08T13:25:50.658Z,50.20
2023-05-08T13:28:18.381Z,52.50
2023-05-08T13:30:45.036Z,50.90
2023-05-08T13:33:11.725Z,51.70
2023-05-08T13:35:38.436Z,50.90
2023-05-08T13:38:06.020Z,51.80
2023-05-08T13:40:33.261Z,50.40
2023-05-08T13:42:59.942Z,53.50
2023-05-08T13:45:27.168Z,51.40
2023-05-08T13:48:10.243Z,52.20
2023-05-08T13:50:37.292Z,51.00
2023-05-08T13:53:04.756Z,49.30
2023-05-08T13:55:31.436Z,51.10
2023-05-08T13:57:58.760Z,51.40
2023-05-08T14:00:27.839Z,52.20
2023-05-08T14:02:55.412Z,52.20
2023-05-08T14:05:22.167Z,54.30
2023-05-08T14:07:48.796Z,55.80
2023-05-08T14:10:17.025Z,54.80
2023-05-08T14:12:55.559Z,54.30
2023-05-08T14:15:25.120Z,54.60
2023-05-08T14:17:56.233Z,55.30
2023-05-08T14:20:22.915Z,52.10
2023-05-08T14:22:50.115Z,51.60
2023-05-08T14:25:17.392Z,54.00
2023-05-08T14:27:44.003Z,54.60
2023-05-08T14:30:11.107Z,52.90
2023-05-08T14:32:37.851Z,52.80
2023-05-08T14:35:05.944Z,53.30
2023-05-08T14:37:32.608Z,51.40
2023-05-08T14:39:59.459Z,50.60
2023-05-08T14:42:26.149Z,52.00
2023-05-08T14:44:53.478Z,50.60
2023-05-08T14:47:20.192Z,50.00
2023-05-08T14:49:47.315Z,51.70
2023-05-08T14:52:14.141Z,52.50
2023-05-08T14:54:53.945Z,52.80
2023-05-08T14:57:25.048Z,52.50
2023-05-08T15:02:40.935Z,53.70
2023-05-08T15:05:17.004Z,55.00
2023-05-08T15:07:59.533Z,55.90
2023-05-08T15:10:39.819Z,56.30
2023-05-08T15:13:13.901Z,56.20
2023-05-08T15:16:00.879Z,57.10
2023-05-08T15:18:28.846Z,56.60
2023-05-08T15:21:01.749Z,56.70
2023-05-08T15:23:29.580Z,57.20
2023-05-08T15:25:56.270Z,57.40
2023-05-08T15:28:23.286Z,57.80
2023-05-08T15:31:23.303Z,57.60
2023-05-08T15:33:50.144Z,58.60
2023-05-08T15:36:16.908Z,58.30
2023-05-08T15:38:43.672Z,59.00
2023-05-08T15:41:14.765Z,59.40
2023-05-08T15:43:42.533Z,58.50
2023-05-08T15:46:09.532Z,60.00
2023-05-08T15:48:36.332Z,60.40
2023-05-08T15:51:03.169Z,61.30
2023-05-08T15:53:29.978Z,62.20
2023-05-08T15:55:57.268Z,61.00
2023-05-08T15:58:24.981Z,60.00
2023-05-08T16:00:51.840Z,60.40
2023-05-08T16:03:19.604Z,59.80
2023-05-08T16:05:46.534Z,60.20
2023-05-08T16:08:14.235Z,60.60
2023-05-08T16:10:44.383Z,60.80
2023-05-08T16:13:11.710Z,61.10
2023-05-08T16:15:38.582Z,62.10
2023-05-08T16:18:06.668Z,62.70
2023-05-08T16:20:35.709Z,63.80
2023-05-08T16:23:03.567Z,62.70
2023-05-08T16:25:30.931Z,63.20
2023-05-08T16:27:57.753Z,63.10
2023-05-08T16:30:24.544Z,63.70
2023-05-08T16:32:52.048Z,64.50
2023-05-08T16:35:19.574Z,65.00
2023-05-08T16:37:47.286Z,66.00
2023-05-08T16:40:14.183Z,65.80
2023-05-08T16:42:41.267Z,64.50
2023-05-08T16:45:08.826Z,65.10
2023-05-08T16:47:36.114Z,64.40
2023-05-08T16:50:04.530Z,64.90
2023-05-08T16:52:32.809Z,64.90
2023-05-08T16:55:00.466Z,66.00
2023-05-08T16:57:27.734Z,63.80
2023-05-08T16:59:54.903Z,63.60
2023-05-08T17:02:22.043Z,64.60
2023-05-08T17:04:50.336Z,64.70
2023-05-08T17:07:17.978Z,65.20
2023-05-08T17:10:00.626Z,65.50
2023-05-08T17:12:27.425Z,66.00
2023-05-08T17:14:54.150Z,66.00
2023-05-08T17:17:21.466Z,65.60
2023-05-08T17:19:48.228Z,66.00
2023-05-08T17:22:15.539Z,66.20
2023-05-08T17:24:42.880Z,66.10
2023-05-08T17:27:10.291Z,66.90
2023-05-08T17:29:37.811Z,66.60
2023-05-08T17:32:04.987Z,67.10
2023-05-08T17:34:31.984Z,67.20
2023-05-08T17:36:59.135Z,67.30
2023-05-08T17:39:25.931Z,67.40
2023-05-08T17:41:52.792Z,67.90
2023-05-08T17:44:19.552Z,68.10
2023-05-08T17:46:46.378Z,68.40
2023-05-08T17:49:17.058Z,68.50
2023-05-08T17:51:45.938Z,69.10
2023-05-08T17:54:12.893Z,69.90
2023-05-08T17:56:39.617Z,69.60
2023-05-08T17:59:09.545Z,69.90
2023-05-08T18:01:36.453Z,70.00
2023-05-08T18:04:04.319Z,70.40
2023-05-08T18:06:31.584Z,71.20
2023-05-08T18:08:58.363Z,71.50
2023-05-08T18:11:26.838Z,72.10
2023-05-08T18:14:02.402Z,72.30
2023-05-08T18:16:29.763Z,72.60
2023-05-08T18:18:56.679Z,72.80
2023-05-08T18:21:24.697Z,73.10
2023-05-08T18:23:51.450Z,73.30
2023-05-08T18:26:18.210Z,73.80
2023-05-08T18:28:45.626Z,73.60
2023-05-08T18:31:13.426Z,74.20
2023-05-08T18:33:41.029Z,74.60
2023-05-08T18:36:07.834Z,75.40
2023-05-08T18:38:35.630Z,76.10
2023-05-08T18:41:03.983Z,76.80
2023-05-08T18:43:31.375Z,77.50
2023-05-08T18:46:00.505Z,78.40
2023-05-08T18:48:28.007Z,79.10
2023-05-08T18:50:59.023Z,80.20
2023-05-08T18:53:25.845Z,80.50
2023-05-08T18:55:53.017Z,80.50
2023-05-08T18:58:19.970Z,81.00
2023-05-08T19:00:47.292Z,82.00
2023-05-08T19:03:14.626Z,82.40
2023-05-08T19:05:41.803Z,83.20
2023-05-08T19:08:09.182Z,84.10
2023-05-08T19:10:36.415Z,85.20
2023-05-08T19:13:03.269Z,86.20
2023-05-08T19:15:30.717Z,88.40
2023-05-08T19:17:58.072Z,89.70
2023-05-08T19:20:24.974Z,91.00
2023-05-08T19:22:51.725Z,92.20
2023-05-08T19:25:19.263Z,93.10
2023-05-08T19:27:46.024Z,94.70
2023-05-08T19:30:14.392Z,96.20
2023-05-08T19:32:41.983Z,97.60
2023-05-08T19:35:10.378Z,98.60
2023-05-08T19:37:37.969Z,99.90
2023-05-08T19:40:06.002Z,99.90
2023-05-08T19:42:33.588Z,99.90
2023-05-08T19:45:00.349Z,99.90
2023-05-08T19:47:27.198Z,99.90
2023-05-08T19:49:54.358Z,99.90
2023-05-08T19:52:21.232Z,99.90
2023-05-08T19:54:48.058Z,99.90
2023-05-08T19:57:15.231Z,99.90
2023-05-08T19:59:41.931Z,99.90
2023-05-08T20:02:09.502Z,99.90
2023-05-08T20:04:48.831Z,99.90
2023-05-08T20:07:29.130Z,99.90
2023-05-08T20:09:56.502Z,99.90
2023-05-08T20:12:23.392Z,99.90
2023-05-08T20:14:50.723Z,99.90
2023-05-08T20:17:18.133Z,99.90
2023-05-08T20:19:45.612Z,99.90
2023-05-08T20:22:12.773Z,99.90
2023-05-08T20:24:40.044Z,99.90
2023-05-08T20:27:07.303Z,99.90
2023-05-08T20:29:34.145Z,99.90
2023-05-08T20:32:02.475Z,99.90
2023-05-08T20:34:30.368Z,99.90
2023-05-08T20:36:59.193Z,99.90
2023-05-08T20:39:26.471Z,99.90
2023-05-08T20:41:53.690Z,99.90
2023-05-08T20:44:20.408Z,99.90
2023-05-08T20:46:47.564Z,99.90
2023-05-08T20:49:14.847Z,99.90
2023-05-08T20:51:41.565Z,99.90
2023-05-08T20:54:08.825Z,99.90
2023-05-08T20:56:38.347Z,99.90
2023-05-08T20:59:05.499Z,99.90
2023-05-08T21:01:32.278Z,99.90
2023-05-08T21:03:59.171Z,99.90
2023-05-08T21:06:26.429Z,99.90
2023-05-08T21:08:53.164Z,99.90
2023-05-08T21:11:20.302Z,99.90
2023-05-08T21:13:48.218Z,99.90
2023-05-08T21:16:14.970Z,99.90
2023-05-08T21:18:41.718Z,99.90
2023-05-08T21:21:16.053Z,99.90
2023-05-08T21:23:43.106Z,99.90
2023-05-08T21:26:09.879Z,99.90
2023-05-08T21:28:37.180Z,99.90
2023-05-08T21:31:04.408Z,99.90
2023-05-08T21:33:31.368Z,99.90
2023-05-08T21:35:59.924Z,99.90
2023-05-08T21:38:26.675Z,99.90
2023-05-08T21:40:53.784Z,99.90
2023-05-08T21:43:20.578Z,99.90
2023-05-08T21:45:47.398Z,99.90
2023-05-08T21:48:45.131Z,99.90
2023-05-08T21:51:41.449Z,99.90
2023-05-08T21:54:10.523Z,99.90
2023-05-08T21:56:38.906Z,99.90
2023-05-08T21:59:06.638Z,99.90
2023-05-08T22:01:33.989Z,99.90
2023-05-08T22:04:00.903Z,99.90
2023-05-08T22:06:27.915Z,99.90
2023-05-08T22:08:54.674Z,99.90
2023-05-08T22:11:22.316Z,99.90
2023-05-08T22:13:49.104Z,99.90
2023-05-08T22:16:15.928Z,99.90
2023-05-08T22:18:42.758Z,99.90
2023-05-08T22:21:09.584Z,99.90
2023-05-08T22:23:36.332Z,99.90
2023-05-08T22:26:03.786Z,99.90
2023-05-08T22:28:30.631Z,99.90
2023-05-08T22:30:57.902Z,99.90
2023-05-08T22:33:24.577Z,99.90
2023-05-08T22:35:51.271Z,99.90
2023-05-08T22:38:18.609Z,99.90
2023-05-08T22:40:47.897Z,99.90
2023-05-08T22:43:15.493Z,99.90
2023-05-08T22:45:42.333Z,99.90
2023-05-08T22:48:10.780Z,99.90
2023-05-08T22:50:37.963Z,99.90
2023-05-08T22:53:08.084Z,99.90
2023-05-08T22:55:36.277Z,99.90
2023-05-08T22:58:03.675Z,99.90
2023-05-08T23:00:31.271Z,99.90
2023-05-08T23:02:58.145Z,99.90
2023-05-08T23:05:24.925Z,99.90
2023-05-08T23:07:52.622Z,99.90
2023-05-08T23:10:19.774Z,99.90
2023-05-08T23:12:46.750Z,99.90
2023-05-08T23:15:14.446Z,99.90
2023-05-08T23:17:41.432Z,99.90
2023-05-08T23:20:08.947Z,99.90
2023-05-08T23:22:35.743Z,99.90
2023-05-08T23:25:02.967Z,99.90
2023-05-08T23:27:30.148Z,99.90
2023-05-08T23:29:56.982Z,99.90
2023-05-08T23:32:24.212Z,99.90
2023-05-08T23:34:51.452Z,99.90
2023-05-08T23:37:18.175Z,99.90
2023-05-08T23:39:45.376Z,99.90
2023-05-08T23:42:12.490Z,99.90
2023-05-08T23:44:39.660Z,99.90
2023-05-08T23:47:06.967Z,99.90
2023-05-08T23:49:35.366Z,99.90
2023-05-08T23:52:03.139Z,99.90
2023-05-08T23:54:29.841Z,99.90
2023-05-08T23:56:57.148Z,99.90
2023-05-08T23:59:23.897Z,99.90
